Burlington Piers

CWWB · Ontario, Kanada

METAR-Geschichte CWWB · Burlington Piers

Unten siehst du die METARs der letzten paar Tage. Wähle ein Jahr, um ältere METARs ab dem Jahr 2007 zu durchsuchen.

17. April 2024

Uhrzeit Code Wetter Temp. Sichtweite Wolkendecke Wind METAR/SPECI
02:53
V
9 °C 10 mi - 090° 090° 4 kt METAR KIAG 170653Z AUTO 09004KT 10SM CLR 09/M02 A3008 RMK AO2 SLP189 T00891017
01:53
V
9 °C 10 mi - 090° 090° 5 kt METAR KIAG 170553Z AUTO 09005KT 10SM CLR 09/M01 A3009 RMK AO2 SLP194 T00891011 10139 20083 58016
00:53
V
8 °C 10 mi - 100° 100° 5 kt METAR KIAG 170453Z AUTO 10005KT 10SM CLR 08/M01 A3012 RMK AO2 SLP203 T00831011 401830050

16. April 2024

Uhrzeit Code Wetter Temp. Sichtweite Wolkendecke Wind METAR/SPECI
23:53
V
10 °C 10 mi - 360° 360° 0 kt METAR KIAG 170353Z AUTO 00000KT 10SM CLR 10/M01 A3013 RMK AO2 SLP208 T01001011
22:53
V
10 °C 10 mi - 080° 080° 6 kt METAR KIAG 170253Z 08006KT 10SM CLR 10/M01 A3014 RMK AO2 SLP211 T01001006 50000
21:53
V
10 °C 10 mi - 090° 090° 5 kt METAR KIAG 170153Z 09005KT 10SM CLR 10/M01 A3016 RMK AO2 SLP219 T01001006
20:53
V
12 °C 10 mi - 090° 090° 4 kt METAR KIAG 170053Z 09004KT 10SM CLR 12/M01 A3015 RMK AO2 SLP214 T01171006
19:53
V
14 °C 10 mi - 080° 080° 4 kt METAR KIAG 162353Z 08004KT 10SM CLR 14/M01 A3014 RMK AO2 SLP211 T01391011 10183 20139 55004
18:53
V
16 °C 10 mi - 050° 050° 6 kt METAR KIAG 162253Z 05006KT 10SM CLR 16/M01 A3014 RMK AO2 SLP211 T01561006
17:53
V
18 °C 10 mi - 060° 060° 7 kt METAR KIAG 162153Z 06007KT 10SM CLR 18/M01 A3015 RMK AO2 SLP213 T01781011
16:53
V
18 °C 10 mi - 360° 360° 5 kt METAR KIAG 162053Z 36005KT 10SM CLR 18/00 A3015 RMK AO2 SLP214 T01780000 58011
15:53
V
17 °C 10 mi - Var Var 3 kt METAR KIAG 161953Z VRB03KT 10SM CLR 17/01 A3017 RMK AO2 SLP219 T01720006
14:53
V
18 °C 10 mi - 340° 340° 8 kt METAR KIAG 161853Z 34008KT 10SM CLR 18/01 A3019 RMK AO2 SLP226 T01780006
13:53
V
17 °C 10 mi - 300° 300° 10 kt METAR KIAG 161753Z 30010KT 10SM CLR 17/01 A3019 RMK AO2 SLP226 T01720011 10172 20089 55004
12:53
V
17 °C 10 mi - Var Var 6 kt METAR KIAG 161653Z VRB06KT 10SM CLR 17/02 A3019 RMK AO2 SLP225 T01670022
11:53
V
16 °C 10 mi - 250° 250° 4 kt METAR KIAG 161553Z 25004KT 10SM CLR 16/01 A3020 RMK AO2 SLP230 T01560006
10:53
V
14 °C 10 mi - 240° 240° 5 kt METAR KIAG 161453Z 24005KT 10SM CLR 14/01 A3020 RMK AO2 SLP231 T01440011 53005
09:53
V
13 °C 10 mi - 360° 360° 0 kt METAR KIAG 161353Z 00000KT 10SM CLR 13/00 A3018 RMK AO2 SLP226 T01280000
08:53
V
11 °C 10 mi - 330° 330° 4 kt METAR KIAG 161253Z 33004KT 10SM CLR 11/00 A3018 RMK AO2 SLP225 T01110000
07:53
V
9 °C 10 mi - 360° 360° 0 kt METAR KIAG 161153Z 00000KT 10SM CLR 09/04 A3018 RMK AO2 SLP226 T00890039 10094 20050 53023
06:53
V
6 °C 10 mi - 240° 240° 3 kt METAR KIAG 161053Z 24003KT 10SM CLR 06/M01 A3016 RMK AO2 SLP218 T00561006
05:53
V
8 °C 10 mi - 360° 360° 0 kt METAR KIAG 160953Z AUTO 00000KT 10SM FEW070 08/00 A3013 RMK AO2 SLP207 T00830000
04:53
V
8 °C 10 mi - 330° 330° 6 kt METAR KIAG 160853Z AUTO 33006KT 10SM SCT080 08/00 A3011 RMK AO2 SLP201 T00830000 53009
03:53
V
8 °C 10 mi 8.500 ft 310° 310° 5 kt METAR KIAG 160753Z AUTO 31005KT 10SM OVC085 08/01 A3010 RMK AO2 SLP198 T00780006
02:53
V
9 °C 10 mi 9.000 ft 280° 280° 5 kt METAR KIAG 160653Z AUTO 28005KT 10SM OVC090 09/00 A3009 RMK AO2 SLP195 T00890000
01:53
V
9 °C 10 mi 9.000 ft 360° 360° 0 kt METAR KIAG 160553Z AUTO 00000KT 10SM BKN090 09/01 A3009 RMK AO2 SLP193 T00940006 10133 20083 53010
00:53
V
10 °C 10 mi 8.000 ft 300° 300° 4 kt METAR KIAG 160453Z AUTO 30004KT 10SM BKN080 OVC090 10/02 A3008 RMK AO2 SLP190 T01000022 401720044

15. April 2024

Uhrzeit Code Wetter Temp. Sichtweite Wolkendecke Wind METAR/SPECI
23:53
V
9 °C 10 mi 7.500 ft 260° 260° 3 kt METAR KIAG 160353Z AUTO 26003KT 10SM BKN075 OVC095 09/02 A3006 RMK AO2 SLP185 T00940017
22:53
V
9 °C 10 mi 7.000 ft 260° 260° 3 kt METAR KIAG 160253Z 26003KT 10SM BKN070 OVC100 09/01 A3006 RMK AO2 SLP183 T00940011 51016
21:53
V
11 °C 10 mi - 360° 360° 0 kt METAR KIAG 160153Z 00000KT 10SM FEW100 11/00 A3004 RMK AO2 SLP177 T01060000
20:53
V
12 °C 10 mi - 320° 320° 4 kt METAR KIAG 160053Z 32004KT 10SM FEW075 12/M01 A3003 RMK AO2 SLP174 T01171006
19:53
V
13 °C 10 mi - 310° 310° 8 kt METAR KIAG 152353Z 31008KT 10SM CLR 13/M01 A3001 RMK AO2 SLP166 T01331011 10172 20133 51018
18:53
V
15 °C 10 mi - 310° 310° 13 - 22 kt METAR KIAG 152253Z 31013G22KT 10SM CLR 15/M01 A3000 RMK AO2 SLP162 T01501006
17:53
V
17 °C 10 mi - 300° 300° 15 kt METAR KIAG 152153Z 30015KT 10SM CLR 17/00 A2998 RMK AO2 SLP156 T01670000
16:53
V
17 °C 10 mi - 300° 300° 13 kt METAR KIAG 152053Z 30013KT 10SM FEW070 17/M01 A2995 RMK AO2 SLP148 T01721006 53005
15:53
V
17 °C 10 mi - 290° 290° 11 kt METAR KIAG 151953Z 29011KT 10SM FEW065 17/02 A2994 RMK AO2 SLP144 T01670017
14:53
V
16 °C 10 mi - 300° 300° 12 - 20 kt METAR KIAG 151853Z 30012G20KT 10SM CLR 16/02 A2994 RMK AO2 SLP142 T01610022
13:53
V
15 °C 10 mi - 300° 300° 12 - 19 kt METAR KIAG 151753Z 30012G19KT 10SM CLR 15/03 A2994 RMK AO2 PK WND 31026/1705 SLP143 T01500033 10150 20083 51001
12:53
V
14 °C 10 mi - 270° 270° 10 kt METAR KIAG 151653Z 27010KT 10SM CLR 14/05 A2994 RMK AO2 SLP143 T01440050
11:53
V
13 °C 10 mi - 290° 290° 8 kt METAR KIAG 151553Z 29008KT 10SM CLR 13/06 A2994 RMK AO2 SLP144 T01280061
10:53
V
12 °C 10 mi - 320° 320° 9 kt METAR KIAG 151453Z 32009KT 10SM CLR 12/06 A2994 RMK AO2 SLP142 T01220061 51011
09:53
V
11 °C 10 mi - 320° 320° 7 kt METAR KIAG 151353Z 32007KT 10SM CLR 11/06 A2992 RMK AO2 SLP137 T01110056
08:53
V
10 °C 10 mi - 290° 290° 7 kt METAR KIAG 151253Z 29007KT 10SM CLR 10/05 A2992 RMK AO2 SLP135 T01000050
07:53
V
8 °C 10 mi 9.000 ft 320° 320° 8 kt METAR KIAG 151153Z 32008KT 10SM BKN090 08/05 A2990 RMK AO2 SLP130 70009 T00830050 10083 20044 53037 $
06:53
V
7 °C 10 mi - 310° 310° 3 kt METAR KIAG 151053Z 31003KT 10SM FEW100 07/04 A2986 RMK AO2 SLP116 T00670039 $
05:53
V
5 °C 10 mi - 270° 270° 5 kt METAR KIAG 150953Z AUTO 27005KT 10SM SCT100 05/03 A2983 RMK AO2 SLP105 T00500028
04:53
V
6 °C 10 mi - 360° 360° 0 kt METAR KIAG 150853Z AUTO 00000KT 10SM CLR 06/03 A2979 RMK AO2 SLP092 T00560033 50004
03:53
V
5 °C 9 mi - 240° 240° 4 kt METAR KIAG 150753Z AUTO 24004KT 9SM CLR 05/03 A2980 RMK AO2 SLP096 T00500028
02:53
V
6 °C 10 mi - 270° 270° 4 kt METAR KIAG 150653Z AUTO 27004KT 10SM CLR 06/04 A2978 RMK AO2 SLP090 T00610044
01:53
V
8 °C 10 mi - 340° 340° 8 kt METAR KIAG 150553Z AUTO 34008KT 10SM CLR 08/04 A2978 RMK AO2 SLP089 T00780044 10150 20078 53020
Eine Änderung melden